sensor_id;sensor_type;location;lat;lon;timestamp;P1;durP1;ratioP1;P2;durP2;ratioP2
38567;SDS011;24338;48.280;10.970;2022-10-12T00:02:20;22.58;;;16.55;;
38567;SDS011;24338;48.280;10.970;2022-10-12T00:04:47;26.98;;;17.85;;
38567;SDS011;24338;48.280;10.970;2022-10-12T00:07:14;27.45;;;18.13;;
38567;SDS011;24338;48.280;10.970;2022-10-12T00:09:41;28.45;;;18.40;;
38567;SDS011;24338;48.280;10.970;2022-10-12T00:12:08;26.42;;;17.38;;
38567;SDS011;24338;48.280;10.970;2022-10-12T00:14:35;28.75;;;18.25;;
38567;SDS011;24338;48.280;10.970;2022-10-12T00:17:02;28.17;;;18.55;;
38567;SDS011;24338;48.280;10.970;2022-10-12T00:19:29;27.25;;;19.50;;
38567;SDS011;24338;48.280;10.970;2022-10-12T00:21:59;27.13;;;18.05;;
38567;SDS011;24338;48.280;10.970;2022-10-12T00:24:25;23.25;;;17.90;;
38567;SDS011;24338;48.280;10.970;2022-10-12T00:26:52;27.42;;;17.88;;
38567;SDS011;24338;48.280;10.970;2022-10-12T00:29:19;25.52;;;18.35;;
38567;SDS011;24338;48.280;10.970;2022-10-12T00:31:46;25.25;;;18.25;;
38567;SDS011;24338;48.280;10.970;2022-10-12T00:34:13;25.30;;;18.45;;
38567;SDS011;24338;48.280;10.970;2022-10-12T00:36:40;27.10;;;18.77;;
38567;SDS011;24338;48.280;10.970;2022-10-12T00:39:07;29.17;;;20.02;;
38567;SDS011;24338;48.280;10.970;2022-10-12T00:41:37;29.55;;;19.80;;
38567;SDS011;24338;48.280;10.970;2022-10-12T00:47:08;28.90;;;20.90;;
38567;SDS011;24338;48.280;10.970;2022-10-12T00:49:39;30.27;;;18.88;;
38567;SDS011;24338;48.280;10.970;2022-10-12T00:52:08;27.02;;;19.23;;
38567;SDS011;24338;48.280;10.970;2022-10-12T00:54:42;27.50;;;20.05;;
38567;SDS011;24338;48.280;10.970;2022-10-12T00:57:12;25.42;;;19.45;;
38567;SDS011;24338;48.280;10.970;2022-10-12T00:59:43;30.63;;;19.00;;
38567;SDS011;24338;48.280;10.970;2022-10-12T01:02:15;30.48;;;20.08;;
38567;SDS011;24338;48.280;10.970;2022-10-12T01:04:45;25.40;;;19.27;;
38567;SDS011;24338;48.280;10.970;2022-10-12T01:07:12;26.75;;;17.98;;
38567;SDS011;24338;48.280;10.970;2022-10-12T01:09:40;30.65;;;19.98;;
38567;SDS011;24338;48.280;10.970;2022-10-12T01:12:07;28.33;;;18.60;;
38567;SDS011;24338;48.280;10.970;2022-10-12T01:14:35;26.83;;;19.02;;
38567;SDS011;24338;48.280;10.970;2022-10-12T01:17:12;29.25;;;18.92;;
38567;SDS011;24338;48.280;10.970;2022-10-12T01:19:50;26.95;;;19.02;;
38567;SDS011;24338;48.280;10.970;2022-10-12T01:22:30;28.55;;;19.95;;
38567;SDS011;24338;48.280;10.970;2022-10-12T01:25:08;24.00;;;18.65;;
38567;SDS011;24338;48.280;10.970;2022-10-12T01:30:42;25.80;;;18.38;;
38567;SDS011;24338;48.280;10.970;2022-10-12T01:35:50;29.42;;;19.10;;
38567;SDS011;24338;48.280;10.970;2022-10-12T01:41:14;27.27;;;19.05;;
38567;SDS011;24338;48.280;10.970;2022-10-12T01:43:42;28.80;;;20.17;;
38567;SDS011;24338;48.280;10.970;2022-10-12T01:48:40;35.10;;;21.50;;
38567;SDS011;24338;48.280;10.970;2022-10-12T01:51:10;38.58;;;22.40;;
38567;SDS011;24338;48.280;10.970;2022-10-12T01:56:35;33.08;;;21.08;;
38567;SDS011;24338;48.280;10.970;2022-10-12T01:59:09;36.75;;;22.38;;
38567;SDS011;24338;48.280;10.970;2022-10-12T02:01:43;44.08;;;24.38;;
38567;SDS011;24338;48.280;10.970;2022-10-12T02:04:22;34.97;;;23.58;;
38567;SDS011;24338;48.280;10.970;2022-10-12T02:07:21;33.63;;;21.45;;
38567;SDS011;24338;48.280;10.970;2022-10-12T02:10:10;35.10;;;23.05;;
38567;SDS011;24338;48.280;10.970;2022-10-12T02:12:41;30.17;;;21.75;;
38567;SDS011;24338;48.280;10.970;2022-10-12T02:15:10;33.83;;;22.45;;
38567;SDS011;24338;48.280;10.970;2022-10-12T02:17:39;32.53;;;21.30;;
38567;SDS011;24338;48.280;10.970;2022-10-12T02:20:10;30.30;;;20.65;;
38567;SDS011;24338;48.280;10.970;2022-10-12T02:22:40;29.73;;;20.50;;
38567;SDS011;24338;48.280;10.970;2022-10-12T02:25:10;30.55;;;21.42;;
38567;SDS011;24338;48.280;10.970;2022-10-12T02:27:42;32.33;;;20.00;;
38567;SDS011;24338;48.280;10.970;2022-10-12T02:30:13;30.05;;;21.77;;
38567;SDS011;24338;48.280;10.970;2022-10-12T02:35:16;31.77;;;22.33;;
38567;SDS011;24338;48.280;10.970;2022-10-12T02:38:06;26.70;;;21.20;;
38567;SDS011;24338;48.280;10.970;2022-10-12T02:40:50;27.05;;;19.63;;
38567;SDS011;24338;48.280;10.970;2022-10-12T02:45:54;29.08;;;20.67;;
38567;SDS011;24338;48.280;10.970;2022-10-12T02:48:23;30.13;;;21.02;;
38567;SDS011;24338;48.280;10.970;2022-10-12T02:50:54;31.65;;;21.48;;
38567;SDS011;24338;48.280;10.970;2022-10-12T02:53:23;31.38;;;22.65;;
38567;SDS011;24338;48.280;10.970;2022-10-12T02:55:52;31.48;;;23.42;;
38567;SDS011;24338;48.280;10.970;2022-10-12T02:58:21;31.80;;;22.65;;
38567;SDS011;24338;48.280;10.970;2022-10-12T03:00:48;32.10;;;22.05;;
38567;SDS011;24338;48.280;10.970;2022-10-12T03:05:43;37.42;;;24.05;;
38567;SDS011;24338;48.280;10.970;2022-10-12T03:08:11;43.22;;;24.42;;
38567;SDS011;24338;48.280;10.970;2022-10-12T03:10:37;37.50;;;23.83;;
38567;SDS011;24338;48.280;10.970;2022-10-12T03:13:04;40.38;;;24.85;;
38567;SDS011;24338;48.280;10.970;2022-10-12T03:15:31;39.67;;;24.42;;
38567;SDS011;24338;48.280;10.970;2022-10-12T03:17:58;54.88;;;27.05;;
38567;SDS011;24338;48.280;10.970;2022-10-12T03:20:25;55.15;;;27.23;;
38567;SDS011;24338;48.280;10.970;2022-10-12T03:22:51;44.97;;;27.27;;
38567;SDS011;24338;48.280;10.970;2022-10-12T03:25:18;59.65;;;28.90;;
38567;SDS011;24338;48.280;10.970;2022-10-12T03:27:45;90.18;;;29.95;;
38567;SDS011;24338;48.280;10.970;2022-10-12T03:30:12;39.13;;;23.88;;
38567;SDS011;24338;48.280;10.970;2022-10-12T03:32:39;55.58;;;28.83;;
38567;SDS011;24338;48.280;10.970;2022-10-12T03:35:06;47.92;;;26.25;;
38567;SDS011;24338;48.280;10.970;2022-10-12T03:37:33;45.58;;;24.25;;
38567;SDS011;24338;48.280;10.970;2022-10-12T03:40:01;48.03;;;27.25;;
38567;SDS011;24338;48.280;10.970;2022-10-12T03:42:28;42.30;;;25.38;;
38567;SDS011;24338;48.280;10.970;2022-10-12T03:44:54;65.40;;;29.02;;
38567;SDS011;24338;48.280;10.970;2022-10-12T03:47:21;46.50;;;27.15;;
38567;SDS011;24338;48.280;10.970;2022-10-12T03:49:48;53.20;;;30.55;;
38567;SDS011;24338;48.280;10.970;2022-10-12T03:52:15;70.25;;;30.30;;
38567;SDS011;24338;48.280;10.970;2022-10-12T03:54:41;56.38;;;28.48;;
38567;SDS011;24338;48.280;10.970;2022-10-12T03:57:08;56.40;;;30.50;;
38567;SDS011;24338;48.280;10.970;2022-10-12T03:59:35;56.35;;;30.90;;
38567;SDS011;24338;48.280;10.970;2022-10-12T04:02:04;57.10;;;31.90;;
38567;SDS011;24338;48.280;10.970;2022-10-12T04:04:30;78.70;;;31.50;;
38567;SDS011;24338;48.280;10.970;2022-10-12T04:06:57;67.32;;;31.40;;
38567;SDS011;24338;48.280;10.970;2022-10-12T04:09:24;55.45;;;30.88;;
38567;SDS011;24338;48.280;10.970;2022-10-12T04:11:51;55.55;;;32.78;;
38567;SDS011;24338;48.280;10.970;2022-10-12T04:14:18;51.05;;;33.08;;
38567;SDS011;24338;48.280;10.970;2022-10-12T04:16:44;67.43;;;32.90;;
38567;SDS011;24338;48.280;10.970;2022-10-12T04:19:11;55.40;;;32.13;;
38567;SDS011;24338;48.280;10.970;2022-10-12T04:21:38;48.58;;;30.85;;
38567;SDS011;24338;48.280;10.970;2022-10-12T04:24:05;48.38;;;31.65;;
38567;SDS011;24338;48.280;10.970;2022-10-12T04:26:32;51.55;;;29.17;;
38567;SDS011;24338;48.280;10.970;2022-10-12T04:28:59;48.78;;;30.60;;
38567;SDS011;24338;48.280;10.970;2022-10-12T04:31:26;47.35;;;29.10;;
38567;SDS011;24338;48.280;10.970;2022-10-12T04:33:53;50.63;;;30.15;;
38567;SDS011;24338;48.280;10.970;2022-10-12T04:36:23;47.75;;;29.23;;
38567;SDS011;24338;48.280;10.970;2022-10-12T04:38:51;50.63;;;29.50;;
38567;SDS011;24338;48.280;10.970;2022-10-12T04:41:25;43.63;;;29.30;;
38567;SDS011;24338;48.280;10.970;2022-10-12T04:43:52;53.65;;;31.20;;
38567;SDS011;24338;48.280;10.970;2022-10-12T04:46:20;47.78;;;28.67;;
38567;SDS011;24338;48.280;10.970;2022-10-12T04:48:47;49.83;;;31.05;;
38567;SDS011;24338;48.280;10.970;2022-10-12T04:51:14;46.45;;;30.20;;
38567;SDS011;24338;48.280;10.970;2022-10-12T04:53:40;45.65;;;30.75;;
38567;SDS011;24338;48.280;10.970;2022-10-12T04:56:07;48.33;;;29.77;;
38567;SDS011;24338;48.280;10.970;2022-10-12T04:58:34;42.50;;;30.48;;
38567;SDS011;24338;48.280;10.970;2022-10-12T05:01:01;45.67;;;28.02;;
38567;SDS011;24338;48.280;10.970;2022-10-12T05:03:28;42.38;;;28.00;;
38567;SDS011;24338;48.280;10.970;2022-10-12T05:05:55;41.92;;;27.20;;
38567;SDS011;24338;48.280;10.970;2022-10-12T05:08:21;37.25;;;26.33;;
38567;SDS011;24338;48.280;10.970;2022-10-12T05:10:48;40.53;;;28.25;;
38567;SDS011;24338;48.280;10.970;2022-10-12T05:13:15;37.60;;;26.85;;
38567;SDS011;24338;48.280;10.970;2022-10-12T05:15:42;45.60;;;28.67;;
38567;SDS011;24338;48.280;10.970;2022-10-12T05:18:09;39.17;;;26.90;;
38567;SDS011;24338;48.280;10.970;2022-10-12T05:20:36;49.13;;;28.35;;
38567;SDS011;24338;48.280;10.970;2022-10-12T05:23:03;44.80;;;27.80;;
38567;SDS011;24338;48.280;10.970;2022-10-12T05:25:30;43.13;;;26.30;;
38567;SDS011;24338;48.280;10.970;2022-10-12T05:27:57;46.40;;;29.63;;
38567;SDS011;24338;48.280;10.970;2022-10-12T05:30:24;43.45;;;26.52;;
38567;SDS011;24338;48.280;10.970;2022-10-12T05:32:51;44.33;;;27.92;;
38567;SDS011;24338;48.280;10.970;2022-10-12T05:35:18;48.80;;;28.38;;
38567;SDS011;24338;48.280;10.970;2022-10-12T05:37:45;44.28;;;27.60;;
38567;SDS011;24338;48.280;10.970;2022-10-12T05:40:12;56.90;;;28.75;;
38567;SDS011;24338;48.280;10.970;2022-10-12T05:42:39;54.03;;;28.38;;
38567;SDS011;24338;48.280;10.970;2022-10-12T05:45:06;51.67;;;29.38;;
38567;SDS011;24338;48.280;10.970;2022-10-12T05:47:34;45.95;;;28.55;;
38567;SDS011;24338;48.280;10.970;2022-10-12T05:50:01;60.15;;;32.33;;
38567;SDS011;24338;48.280;10.970;2022-10-12T05:52:30;70.55;;;32.70;;
38567;SDS011;24338;48.280;10.970;2022-10-12T05:54:57;64.05;;;32.08;;
38567;SDS011;24338;48.280;10.970;2022-10-12T05:57:24;67.70;;;33.45;;
38567;SDS011;24338;48.280;10.970;2022-10-12T05:59:51;73.50;;;34.38;;
38567;SDS011;24338;48.280;10.970;2022-10-12T06:02:17;63.50;;;29.95;;
38567;SDS011;24338;48.280;10.970;2022-10-12T06:04:44;74.78;;;33.03;;
38567;SDS011;24338;48.280;10.970;2022-10-12T06:07:11;62.15;;;32.10;;
38567;SDS011;24338;48.280;10.970;2022-10-12T06:09:38;63.97;;;33.45;;
38567;SDS011;24338;48.280;10.970;2022-10-12T06:12:05;62.70;;;32.22;;
38567;SDS011;24338;48.280;10.970;2022-10-12T06:14:33;73.05;;;34.00;;
38567;SDS011;24338;48.280;10.970;2022-10-12T06:17:07;68.18;;;34.30;;
38567;SDS011;24338;48.280;10.970;2022-10-12T06:19:35;65.03;;;34.08;;
38567;SDS011;24338;48.280;10.970;2022-10-12T06:22:02;68.05;;;34.88;;
38567;SDS011;24338;48.280;10.970;2022-10-12T06:24:30;71.55;;;33.75;;
38567;SDS011;24338;48.280;10.970;2022-10-12T06:26:57;77.32;;;35.72;;
38567;SDS011;24338;48.280;10.970;2022-10-12T06:29:24;62.20;;;32.65;;
38567;SDS011;24338;48.280;10.970;2022-10-12T06:31:50;64.82;;;34.08;;
38567;SDS011;24338;48.280;10.970;2022-10-12T06:34:17;58.45;;;32.85;;
38567;SDS011;24338;48.280;10.970;2022-10-12T06:36:45;68.93;;;34.60;;
38567;SDS011;24338;48.280;10.970;2022-10-12T06:39:11;72.53;;;35.80;;
38567;SDS011;24338;48.280;10.970;2022-10-12T06:41:38;75.05;;;35.78;;
38567;SDS011;24338;48.280;10.970;2022-10-12T06:44:05;72.13;;;35.53;;
38567;SDS011;24338;48.280;10.970;2022-10-12T06:46:33;76.80;;;34.65;;
38567;SDS011;24338;48.280;10.970;2022-10-12T06:49:00;79.18;;;36.45;;
38567;SDS011;24338;48.280;10.970;2022-10-12T06:51:27;62.45;;;32.78;;
38567;SDS011;24338;48.280;10.970;2022-10-12T06:53:54;64.28;;;34.35;;
38567;SDS011;24338;48.280;10.970;2022-10-12T06:56:21;76.35;;;35.47;;
38567;SDS011;24338;48.280;10.970;2022-10-12T06:58:54;72.47;;;36.38;;
38567;SDS011;24338;48.280;10.970;2022-10-12T07:01:21;68.93;;;34.50;;
38567;SDS011;24338;48.280;10.970;2022-10-12T07:03:48;66.50;;;34.53;;
38567;SDS011;24338;48.280;10.970;2022-10-12T07:06:15;65.65;;;36.22;;
38567;SDS011;24338;48.280;10.970;2022-10-12T07:08:42;65.03;;;34.17;;
38567;SDS011;24338;48.280;10.970;2022-10-12T07:11:09;61.50;;;33.55;;
38567;SDS011;24338;48.280;10.970;2022-10-12T07:13:38;62.28;;;34.63;;
38567;SDS011;24338;48.280;10.970;2022-10-12T07:16:04;62.50;;;33.33;;
38567;SDS011;24338;48.280;10.970;2022-10-12T07:18:31;54.28;;;33.40;;
38567;SDS011;24338;48.280;10.970;2022-10-12T07:20:58;53.88;;;32.38;;
38567;SDS011;24338;48.280;10.970;2022-10-12T07:23:30;56.65;;;31.67;;
38567;SDS011;24338;48.280;10.970;2022-10-12T07:25:58;52.85;;;30.58;;
38567;SDS011;24338;48.280;10.970;2022-10-12T07:28:25;52.75;;;30.30;;
38567;SDS011;24338;48.280;10.970;2022-10-12T07:30:52;53.22;;;32.00;;
38567;SDS011;24338;48.280;10.970;2022-10-12T07:33:19;58.22;;;32.50;;
38567;SDS011;24338;48.280;10.970;2022-10-12T07:35:53;48.58;;;29.70;;
38567;SDS011;24338;48.280;10.970;2022-10-12T07:38:40;52.50;;;30.88;;
38567;SDS011;24338;48.280;10.970;2022-10-12T07:41:10;53.00;;;31.13;;
38567;SDS011;24338;48.280;10.970;2022-10-12T07:43:37;55.67;;;32.20;;
38567;SDS011;24338;48.280;10.970;2022-10-12T07:46:05;50.88;;;30.90;;
38567;SDS011;24338;48.280;10.970;2022-10-12T07:48:32;55.58;;;33.08;;
38567;SDS011;24338;48.280;10.970;2022-10-12T07:51:07;49.05;;;30.45;;
38567;SDS011;24338;48.280;10.970;2022-10-12T07:53:36;48.05;;;31.55;;
38567;SDS011;24338;48.280;10.970;2022-10-12T07:56:04;51.75;;;32.00;;
38567;SDS011;24338;48.280;10.970;2022-10-12T07:58:33;49.22;;;31.48;;
38567;SDS011;24338;48.280;10.970;2022-10-12T08:01:04;45.65;;;29.02;;
38567;SDS011;24338;48.280;10.970;2022-10-12T08:03:32;49.95;;;29.65;;
38567;SDS011;24338;48.280;10.970;2022-10-12T08:05:59;47.35;;;29.42;;
38567;SDS011;24338;48.280;10.970;2022-10-12T08:08:25;42.50;;;26.90;;
38567;SDS011;24338;48.280;10.970;2022-10-12T08:10:52;44.80;;;29.67;;
38567;SDS011;24338;48.280;10.970;2022-10-12T08:13:19;45.40;;;28.92;;
38567;SDS011;24338;48.280;10.970;2022-10-12T08:15:49;43.38;;;29.50;;
38567;SDS011;24338;48.280;10.970;2022-10-12T08:18:16;44.95;;;28.95;;
38567;SDS011;24338;48.280;10.970;2022-10-12T08:20:43;43.42;;;27.90;;
38567;SDS011;24338;48.280;10.970;2022-10-12T08:23:09;43.80;;;29.70;;
38567;SDS011;24338;48.280;10.970;2022-10-12T08:25:36;42.45;;;27.67;;
38567;SDS011;24338;48.280;10.970;2022-10-12T08:28:03;43.60;;;28.50;;
38567;SDS011;24338;48.280;10.970;2022-10-12T08:30:34;49.58;;;30.63;;
38567;SDS011;24338;48.280;10.970;2022-10-12T08:33:00;42.15;;;27.85;;
38567;SDS011;24338;48.280;10.970;2022-10-12T08:35:32;45.42;;;29.27;;
38567;SDS011;24338;48.280;10.970;2022-10-12T08:37:58;43.55;;;30.05;;
38567;SDS011;24338;48.280;10.970;2022-10-12T08:40:27;46.90;;;29.50;;
38567;SDS011;24338;48.280;10.970;2022-10-12T08:43:19;46.22;;;29.00;;
38567;SDS011;24338;48.280;10.970;2022-10-12T08:45:57;50.42;;;31.58;;
38567;SDS011;24338;48.280;10.970;2022-10-12T08:51:18;46.88;;;30.05;;
38567;SDS011;24338;48.280;10.970;2022-10-12T08:53:58;46.92;;;28.77;;
38567;SDS011;24338;48.280;10.970;2022-10-12T08:56:30;37.10;;;26.00;;
38567;SDS011;24338;48.280;10.970;2022-10-12T08:59:00;40.22;;;26.27;;
38567;SDS011;24338;48.280;10.970;2022-10-12T09:07:00;32.40;;;22.90;;
38567;SDS011;24338;48.280;10.970;2022-10-12T09:09:37;32.95;;;23.00;;
38567;SDS011;24338;48.280;10.970;2022-10-12T09:15:25;37.92;;;23.50;;
38567;SDS011;24338;48.280;10.970;2022-10-12T09:17:59;38.28;;;23.83;;
38567;SDS011;24338;48.280;10.970;2022-10-12T09:20:29;34.03;;;22.50;;
38567;SDS011;24338;48.280;10.970;2022-10-12T09:23:02;34.72;;;22.77;;
38567;SDS011;24338;48.280;10.970;2022-10-12T09:25:37;35.10;;;23.00;;
38567;SDS011;24338;48.280;10.970;2022-10-12T09:28:16;34.00;;;23.67;;
38567;SDS011;24338;48.280;10.970;2022-10-12T09:31:04;31.65;;;22.15;;
38567;SDS011;24338;48.280;10.970;2022-10-12T09:33:45;33.80;;;22.15;;
38567;SDS011;24338;48.280;10.970;2022-10-12T09:36:19;31.90;;;21.52;;
38567;SDS011;24338;48.280;10.970;2022-10-12T09:38:47;32.33;;;21.55;;
38567;SDS011;24338;48.280;10.970;2022-10-12T09:41:18;32.58;;;23.38;;
38567;SDS011;24338;48.280;10.970;2022-10-12T09:43:51;31.33;;;21.80;;
38567;SDS011;24338;48.280;10.970;2022-10-12T09:46:26;33.78;;;22.00;;
38567;SDS011;24338;48.280;10.970;2022-10-12T09:49:15;38.67;;;21.83;;
38567;SDS011;24338;48.280;10.970;2022-10-12T09:51:41;33.13;;;20.90;;
38567;SDS011;24338;48.280;10.970;2022-10-12T09:54:15;33.67;;;20.80;;
38567;SDS011;24338;48.280;10.970;2022-10-12T09:56:48;31.98;;;20.35;;
38567;SDS011;24338;48.280;10.970;2022-10-12T09:59:19;34.83;;;20.88;;
38567;SDS011;24338;48.280;10.970;2022-10-12T10:04:48;29.45;;;20.75;;
38567;SDS011;24338;48.280;10.970;2022-10-12T10:10:35;34.28;;;18.75;;
38567;SDS011;24338;48.280;10.970;2022-10-12T10:15:35;33.67;;;19.92;;
38567;SDS011;24338;48.280;10.970;2022-10-12T10:18:07;32.83;;;18.42;;
38567;SDS011;24338;48.280;10.970;2022-10-12T10:20:52;28.65;;;19.70;;
38567;SDS011;24338;48.280;10.970;2022-10-12T10:23:36;30.20;;;18.63;;
38567;SDS011;24338;48.280;10.970;2022-10-12T10:26:19;27.73;;;17.58;;
38567;SDS011;24338;48.280;10.970;2022-10-12T10:28:48;25.83;;;18.20;;
38567;SDS011;24338;48.280;10.970;2022-10-12T10:31:23;30.42;;;19.20;;
38567;SDS011;24338;48.280;10.970;2022-10-12T10:34:03;26.13;;;18.77;;
38567;SDS011;24338;48.280;10.970;2022-10-12T10:39:24;29.13;;;18.85;;
38567;SDS011;24338;48.280;10.970;2022-10-12T10:41:55;28.45;;;19.05;;
38567;SDS011;24338;48.280;10.970;2022-10-12T10:44:34;25.63;;;16.48;;
38567;SDS011;24338;48.280;10.970;2022-10-12T10:47:06;27.35;;;17.83;;
38567;SDS011;24338;48.280;10.970;2022-10-12T10:49:42;29.92;;;18.13;;
38567;SDS011;24338;48.280;10.970;2022-10-12T10:52:43;25.40;;;16.50;;
38567;SDS011;24338;48.280;10.970;2022-10-12T10:55:21;28.98;;;17.75;;
38567;SDS011;24338;48.280;10.970;2022-10-12T11:00:32;23.33;;;16.42;;
38567;SDS011;24338;48.280;10.970;2022-10-12T11:03:06;23.70;;;16.20;;
38567;SDS011;24338;48.280;10.970;2022-10-12T11:06:06;25.55;;;16.15;;
38567;SDS011;24338;48.280;10.970;2022-10-12T11:08:35;26.45;;;17.23;;
38567;SDS011;24338;48.280;10.970;2022-10-12T11:11:14;26.17;;;16.05;;
38567;SDS011;24338;48.280;10.970;2022-10-12T11:13:58;28.15;;;15.80;;
38567;SDS011;24338;48.280;10.970;2022-10-12T11:16:33;26.02;;;15.73;;
38567;SDS011;24338;48.280;10.970;2022-10-12T11:19:23;21.80;;;15.13;;
38567;SDS011;24338;48.280;10.970;2022-10-12T11:22:13;25.95;;;16.92;;
38567;SDS011;24338;48.280;10.970;2022-10-12T11:24:52;26.48;;;16.90;;
38567;SDS011;24338;48.280;10.970;2022-10-12T11:27:59;24.05;;;15.25;;
38567;SDS011;24338;48.280;10.970;2022-10-12T11:30:27;23.75;;;14.38;;
38567;SDS011;24338;48.280;10.970;2022-10-12T11:33:03;27.52;;;17.27;;
38567;SDS011;24338;48.280;10.970;2022-10-12T11:35:36;20.10;;;13.82;;
38567;SDS011;24338;48.280;10.970;2022-10-12T11:38:12;23.98;;;14.90;;
38567;SDS011;24338;48.280;10.970;2022-10-12T11:41:13;26.02;;;14.75;;
38567;SDS011;24338;48.280;10.970;2022-10-12T11:44:40;21.50;;;13.93;;
38567;SDS011;24338;48.280;10.970;2022-10-12T11:52:34;17.20;;;11.18;;
38567;SDS011;24338;48.280;10.970;2022-10-12T11:57:33;18.85;;;11.80;;
38567;SDS011;24338;48.280;10.970;2022-10-12T12:00:06;18.67;;;12.05;;
38567;SDS011;24338;48.280;10.970;2022-10-12T12:02:45;19.70;;;12.23;;
38567;SDS011;24338;48.280;10.970;2022-10-12T12:05:18;19.95;;;11.38;;
38567;SDS011;24338;48.280;10.970;2022-10-12T12:07:49;23.08;;;12.30;;
38567;SDS011;24338;48.280;10.970;2022-10-12T12:13:39;19.13;;;11.45;;
38567;SDS011;24338;48.280;10.970;2022-10-12T12:18:16;19.95;;;12.25;;
38567;SDS011;24338;48.280;10.970;2022-10-12T12:25:44;19.38;;;11.35;;
38567;SDS011;24338;48.280;10.970;2022-10-12T12:28:21;20.98;;;11.63;;
38567;SDS011;24338;48.280;10.970;2022-10-12T12:31:00;20.63;;;13.48;;
38567;SDS011;24338;48.280;10.970;2022-10-12T12:33:37;18.73;;;13.15;;
38567;SDS011;24338;48.280;10.970;2022-10-12T12:36:08;22.40;;;13.30;;
38567;SDS011;24338;48.280;10.970;2022-10-12T12:38:39;13.98;;;7.85;;
38567;SDS011;24338;48.280;10.970;2022-10-12T12:46:11;24.15;;;13.30;;
38567;SDS011;24338;48.280;10.970;2022-10-12T12:53:37;23.33;;;15.32;;
38567;SDS011;24338;48.280;10.970;2022-10-12T13:11:51;23.98;;;12.85;;
38567;SDS011;24338;48.280;10.970;2022-10-12T13:14:42;24.50;;;12.90;;
38567;SDS011;24338;48.280;10.970;2022-10-12T13:20:58;23.00;;;15.18;;
38567;SDS011;24338;48.280;10.970;2022-10-12T13:23:25;22.20;;;14.35;;
38567;SDS011;24338;48.280;10.970;2022-10-12T13:25:55;20.90;;;14.05;;
38567;SDS011;24338;48.280;10.970;2022-10-12T13:28:36;19.40;;;14.55;;
38567;SDS011;24338;48.280;10.970;2022-10-12T13:31:18;24.33;;;14.18;;
38567;SDS011;24338;48.280;10.970;2022-10-12T13:34:04;20.25;;;13.90;;
38567;SDS011;24338;48.280;10.970;2022-10-12T13:39:25;22.30;;;14.63;;
38567;SDS011;24338;48.280;10.970;2022-10-12T13:42:03;23.13;;;14.27;;
38567;SDS011;24338;48.280;10.970;2022-10-12T13:44:32;21.13;;;14.25;;
38567;SDS011;24338;48.280;10.970;2022-10-12T13:47:01;21.75;;;14.57;;
38567;SDS011;24338;48.280;10.970;2022-10-12T13:49:45;21.23;;;13.70;;
38567;SDS011;24338;48.280;10.970;2022-10-12T13:52:26;21.40;;;13.30;;
38567;SDS011;24338;48.280;10.970;2022-10-12T13:56:17;26.77;;;14.15;;
38567;SDS011;24338;48.280;10.970;2022-10-12T13:59:43;21.75;;;13.52;;
38567;SDS011;24338;48.280;10.970;2022-10-12T14:03:04;25.05;;;14.95;;
38567;SDS011;24338;48.280;10.970;2022-10-12T14:06:54;23.17;;;14.88;;
38567;SDS011;24338;48.280;10.970;2022-10-12T14:13:48;23.58;;;15.63;;
38567;SDS011;24338;48.280;10.970;2022-10-12T14:16:21;22.48;;;14.35;;
38567;SDS011;24338;48.280;10.970;2022-10-12T14:23:20;20.02;;;14.98;;
38567;SDS011;24338;48.280;10.970;2022-10-12T14:26:39;25.48;;;16.00;;
38567;SDS011;24338;48.280;10.970;2022-10-12T14:29:30;27.48;;;17.30;;
38567;SDS011;24338;48.280;10.970;2022-10-12T14:34:46;27.25;;;16.95;;
38567;SDS011;24338;48.280;10.970;2022-10-12T14:37:56;23.92;;;15.23;;
38567;SDS011;24338;48.280;10.970;2022-10-12T14:44:41;25.83;;;15.43;;
38567;SDS011;24338;48.280;10.970;2022-10-12T14:47:49;21.45;;;14.65;;
38567;SDS011;24338;48.280;10.970;2022-10-12T14:51:05;25.65;;;15.07;;
38567;SDS011;24338;48.280;10.970;2022-10-12T14:54:22;23.67;;;15.55;;
38567;SDS011;24338;48.280;10.970;2022-10-12T14:57:14;23.05;;;14.82;;
38567;SDS011;24338;48.280;10.970;2022-10-12T15:00:03;20.05;;;14.27;;
38567;SDS011;24338;48.280;10.970;2022-10-12T15:27:49;17.52;;;11.68;;
38567;SDS011;24338;48.280;10.970;2022-10-12T15:31:03;20.17;;;12.55;;
38567;SDS011;24338;48.280;10.970;2022-10-12T15:34:34;17.92;;;12.45;;
38567;SDS011;24338;48.280;10.970;2022-10-12T15:37:54;16.27;;;11.27;;
38567;SDS011;24338;48.280;10.970;2022-10-12T15:41:03;20.73;;;11.35;;
38567;SDS011;24338;48.280;10.970;2022-10-12T15:44:19;17.85;;;10.98;;
38567;SDS011;24338;48.280;10.970;2022-10-12T15:47:16;17.85;;;11.90;;
38567;SDS011;24338;48.280;10.970;2022-10-12T15:51:23;20.77;;;12.30;;
38567;SDS011;24338;48.280;10.970;2022-10-12T15:54:30;16.02;;;10.98;;
38567;SDS011;24338;48.280;10.970;2022-10-12T15:56:57;17.42;;;11.50;;
38567;SDS011;24338;48.280;10.970;2022-10-12T15:59:24;17.13;;;11.98;;
38567;SDS011;24338;48.280;10.970;2022-10-12T16:01:51;20.08;;;12.93;;
38567;SDS011;24338;48.280;10.970;2022-10-12T16:04:18;31.33;;;16.83;;
38567;SDS011;24338;48.280;10.970;2022-10-12T16:06:45;26.98;;;18.63;;
38567;SDS011;24338;48.280;10.970;2022-10-12T16:09:12;28.65;;;18.20;;
38567;SDS011;24338;48.280;10.970;2022-10-12T16:11:39;26.30;;;16.05;;
38567;SDS011;24338;48.280;10.970;2022-10-12T16:14:06;16.40;;;12.20;;
38567;SDS011;24338;48.280;10.970;2022-10-12T16:16:34;17.00;;;11.52;;
38567;SDS011;24338;48.280;10.970;2022-10-12T16:19:01;18.63;;;12.02;;
38567;SDS011;24338;48.280;10.970;2022-10-12T16:21:28;17.98;;;12.25;;
38567;SDS011;24338;48.280;10.970;2022-10-12T16:23:55;16.52;;;11.77;;
38567;SDS011;24338;48.280;10.970;2022-10-12T16:26:22;18.40;;;11.93;;
38567;SDS011;24338;48.280;10.970;2022-10-12T16:28:48;17.15;;;12.23;;
38567;SDS011;24338;48.280;10.970;2022-10-12T16:31:15;23.42;;;12.13;;
38567;SDS011;24338;48.280;10.970;2022-10-12T16:33:43;17.65;;;12.30;;
38567;SDS011;24338;48.280;10.970;2022-10-12T16:36:11;20.85;;;12.40;;
38567;SDS011;24338;48.280;10.970;2022-10-12T16:38:40;16.63;;;12.40;;
38567;SDS011;24338;48.280;10.970;2022-10-12T16:41:08;18.35;;;11.55;;
38567;SDS011;24338;48.280;10.970;2022-10-12T16:43:36;19.52;;;12.25;;
38567;SDS011;24338;48.280;10.970;2022-10-12T16:46:03;16.67;;;12.52;;
38567;SDS011;24338;48.280;10.970;2022-10-12T16:48:31;18.63;;;12.55;;
38567;SDS011;24338;48.280;10.970;2022-10-12T16:50:58;20.17;;;12.38;;
38567;SDS011;24338;48.280;10.970;2022-10-12T16:53:25;21.90;;;14.05;;
38567;SDS011;24338;48.280;10.970;2022-10-12T16:55:52;22.25;;;15.98;;
38567;SDS011;24338;48.280;10.970;2022-10-12T16:58:19;21.25;;;14.75;;
38567;SDS011;24338;48.280;10.970;2022-10-12T17:00:46;24.25;;;15.68;;
38567;SDS011;24338;48.280;10.970;2022-10-12T17:03:13;19.20;;;14.63;;
38567;SDS011;24338;48.280;10.970;2022-10-12T17:05:40;18.27;;;14.65;;
38567;SDS011;24338;48.280;10.970;2022-10-12T17:08:08;21.15;;;13.82;;